Decoded Metar for UBBN (NAKHCHIVAN in AZERBAIJAN) (IATA:N/A) | Meteo·Mobile Aviation Weather
aviador You're here:

UBBN Decoded Metar

NAKHCHIVAN in AZERBAIJAN
Report Time2018-09-21 12:00:00
UTC Time2018-09-21 12:29:54
Flight Rules vfr VFR
Wind190° at 02 kt
W.Decomp.*RWY 14: 1.4 kt HW 1.5 kt RCW
W.Rank190° ranks 29
Current wind is below 190° avg. (5.0)
Visibility9999 m
Phenomena:N/A
Clouds:Few CB 050 Hf
Broken 100 Hf
Expected CloudBase > 8,000 ft AGL from Temp-Dew spread
Ceiling10,000 ft
Temp28°C (ISA +24)
Dew Point08°C (28% RH)
Heat Index27.0°C
AAT26.8°C
QNH1015 hPa
Density Alt8,481 ft
Elevation5,653 ft
Report Wrong Elevation
Raw Report
UBBN 211200Z 19002KT 9999 FEW050CB BKN100 28/08 Q1015 R14R/CLRD//
NOSIG RMK MT OP QFE686=

Extra information for UBBN:More info

Metar Taf Metar & Taf Last 4 Metars F.Rules Stats Wind Profile Meteogram Temp Stats Airport Information Weather charts Add Link Nearby VenuesMetar ALERT Operation Metar Decoded Social comments